Stith, Texas
Current Conditions -  °F | °C
As of 1:58 PM on Wednesday 26 Nov 2014 (Local Time) from KDYS Reporting Station
Clear Clear  
Wind Chill: 58°   Ceiling: Unl
Heat Index: 58°   Visibility: 10mi
Dew Point: 34°   Wind: 10mph
Humidity: 40%   Direction: 20°NNE
Pressure: 30.22"   Gusts: NA
Location:  32.3913°N, 100.009°W
Report Text: KDYS 261958Z AUTO 02009KT 10SM CLR 15/01 A3022 RMK AO2 SLP219 T01470013 $
Loading
Personal Weather Stations






























Interactive Weather Map New forecast layout! Learn more

10-Day Weather Forecast

Advertisements
Track Severe Weather on mobile